createdAt,value
2022-12-13T00:00:19.286Z,0.00
2022-12-13T00:01:19.500Z,0.00
2022-12-13T00:02:19.863Z,0.00
2022-12-13T00:03:20.044Z,0.00
2022-12-13T00:04:21.339Z,0.00
2022-12-13T00:05:20.669Z,0.00
2022-12-13T00:06:21.012Z,0.00
2022-12-13T00:07:21.342Z,0.00
2022-12-13T00:08:21.760Z,1.00
2022-12-13T00:09:21.820Z,0.00
2022-12-13T00:10:22.023Z,0.00
2022-12-13T00:11:22.316Z,0.00
2022-12-13T00:12:22.586Z,0.00
2022-12-13T00:13:22.891Z,0.00
2022-12-13T00:14:23.236Z,0.00
2022-12-13T00:15:23.450Z,0.00
2022-12-13T00:16:23.900Z,0.00
2022-12-13T00:17:24.075Z,0.00
2022-12-13T00:18:24.445Z,0.00
2022-12-13T00:19:24.771Z,0.00
2022-12-13T00:20:25.117Z,0.00
2022-12-13T00:21:25.322Z,1.00
2022-12-13T00:22:25.592Z,0.00
2022-12-13T00:23:25.978Z,0.00
2022-12-13T00:24:26.210Z,0.00
2022-12-13T00:25:26.387Z,0.00
2022-12-13T00:26:26.764Z,0.00
2022-12-13T00:27:27.046Z,0.00
2022-12-13T00:28:27.411Z,0.00
2022-12-13T00:29:27.588Z,0.00
2022-12-13T00:30:28.003Z,0.00
2022-12-13T00:31:56.830Z,0.00
2022-12-13T00:32:29.502Z,0.00
2022-12-13T00:33:28.712Z,0.00
2022-12-13T00:34:29.064Z,0.00
2022-12-13T00:35:29.274Z,0.00
2022-12-13T00:36:29.631Z,0.00
2022-12-13T00:37:29.899Z,0.00
2022-12-13T00:38:30.111Z,0.00
2022-12-13T00:39:30.424Z,0.00
2022-12-13T00:40:30.741Z,0.00
2022-12-13T00:41:31.051Z,0.00
2022-12-13T00:42:31.419Z,0.00
2022-12-13T00:43:31.704Z,0.00
2022-12-13T00:44:32.024Z,0.00
2022-12-13T00:45:32.163Z,0.00
2022-12-13T00:46:32.583Z,0.00
2022-12-13T00:47:32.805Z,0.00
2022-12-13T00:48:33.187Z,0.00
2022-12-13T00:49:33.434Z,0.00
2022-12-13T00:50:33.758Z,0.00
2022-12-13T00:51:34.077Z,0.00
2022-12-13T00:52:34.408Z,0.00
2022-12-13T00:53:34.716Z,0.00
2022-12-13T00:54:35.047Z,0.00
2022-12-13T00:55:35.376Z,0.00
2022-12-13T00:56:35.718Z,0.00
2022-12-13T00:57:36.001Z,0.00
2022-12-13T00:58:36.228Z,0.00
2022-12-13T00:59:36.564Z,0.00
2022-12-13T01:00:36.982Z,0.00
2022-12-13T01:01:37.310Z,0.00
2022-12-13T01:02:37.550Z,0.00
2022-12-13T01:03:37.819Z,0.00
2022-12-13T01:04:38.051Z,0.00
2022-12-13T01:06:13.743Z,0.00
2022-12-13T01:06:39.798Z,0.00
2022-12-13T01:07:39.191Z,0.00
2022-12-13T01:08:39.339Z,0.00
2022-12-13T01:09:39.540Z,0.00
2022-12-13T01:10:39.864Z,0.00
2022-12-13T01:11:40.216Z,0.00
2022-12-13T01:12:40.543Z,0.00
2022-12-13T01:13:40.865Z,0.00
2022-12-13T01:14:41.209Z,0.00
2022-12-13T01:15:41.384Z,0.00
2022-12-13T01:16:41.806Z,0.00
2022-12-13T01:17:42.474Z,0.00
2022-12-13T01:18:42.333Z,0.00
2022-12-13T01:19:42.686Z,0.00
2022-12-13T01:20:43.108Z,0.00
2022-12-13T01:21:43.291Z,0.00
2022-12-13T01:22:43.604Z,0.00
2022-12-13T01:23:43.845Z,0.00
2022-12-13T01:24:44.098Z,1.00
2022-12-13T01:25:44.296Z,0.00
2022-12-13T01:26:44.620Z,0.00
2022-12-13T01:27:44.818Z,0.00
2022-12-13T01:28:45.309Z,0.00
2022-12-13T01:29:45.463Z,0.00
2022-12-13T01:30:45.792Z,0.00
2022-12-13T01:31:46.145Z,0.00
2022-12-13T01:32:46.440Z,0.00
2022-12-13T01:33:46.632Z,0.00
2022-12-13T01:34:46.915Z,1.00
2022-12-13T01:35:47.272Z,0.00
2022-12-13T01:36:47.645Z,0.00
2022-12-13T01:37:47.800Z,1.00
2022-12-13T01:38:48.205Z,0.00
2022-12-13T01:39:48.395Z,0.00
2022-12-13T01:40:48.765Z,0.00
2022-12-13T01:41:48.991Z,0.00
2022-12-13T01:42:49.344Z,0.00
2022-12-13T01:43:49.567Z,0.00
2022-12-13T01:44:49.913Z,0.00
2022-12-13T01:45:50.139Z,0.00
2022-12-13T01:46:50.508Z,0.00
2022-12-13T01:47:50.696Z,0.00
2022-12-13T01:48:51.042Z,0.00
2022-12-13T01:49:51.745Z,0.00
2022-12-13T01:50:51.511Z,0.00
2022-12-13T01:51:51.834Z,0.00
2022-12-13T01:52:52.238Z,0.00
2022-12-13T01:53:52.424Z,0.00
2022-12-13T01:54:52.813Z,0.00
2022-12-13T01:55:53.084Z,0.00
2022-12-13T01:56:53.300Z,0.00
2022-12-13T01:57:54.524Z,0.00
2022-12-13T01:58:53.863Z,0.00
2022-12-13T01:59:54.181Z,0.00
2022-12-13T02:00:54.548Z,0.00
2022-12-13T02:01:54.811Z,0.00
2022-12-13T02:02:56.051Z,0.00
2022-12-13T02:03:55.317Z,0.00
2022-12-13T02:04:55.582Z,0.00
2022-12-13T02:05:55.845Z,0.00
2022-12-13T02:06:56.123Z,0.00
2022-12-13T02:07:56.342Z,0.00
2022-12-13T02:08:57.517Z,0.00
2022-12-13T02:09:57.316Z,0.00
2022-12-13T02:10:57.207Z,0.00
2022-12-13T02:11:57.445Z,0.00
2022-12-13T02:12:57.738Z,0.00
2022-12-13T02:13:58.038Z,0.00
2022-12-13T02:15:00.343Z,0.00
2022-12-13T02:15:58.807Z,0.00
2022-12-13T02:16:59.080Z,0.00
2022-12-13T02:17:59.237Z,0.00
2022-12-13T02:19:00.495Z,0.00
2022-12-13T02:19:59.866Z,0.00
2022-12-13T02:21:00.260Z,0.00
2022-12-13T02:22:00.499Z,0.00
2022-12-13T02:23:00.708Z,0.00
2022-12-13T02:24:01.044Z,0.00
2022-12-13T02:25:02.279Z,0.00
2022-12-13T02:26:01.504Z,0.00
2022-12-13T02:27:01.889Z,0.00
2022-12-13T02:28:02.074Z,0.00
2022-12-13T02:29:02.470Z,0.00
2022-12-13T02:30:02.715Z,0.00
2022-12-13T02:31:03.073Z,0.00
2022-12-13T02:32:03.259Z,0.00
2022-12-13T02:33:03.637Z,0.00
2022-12-13T02:34:03.820Z,0.00
2022-12-13T02:35:04.215Z,0.00
2022-12-13T02:36:04.528Z,0.00
2022-12-13T02:37:04.785Z,0.00
2022-12-13T02:38:06.035Z,0.00
2022-12-13T02:39:05.381Z,0.00
2022-12-13T02:40:05.649Z,0.00
2022-12-13T02:41:05.917Z,0.00
2022-12-13T02:42:06.322Z,0.00
2022-12-13T02:43:06.573Z,0.00
2022-12-13T02:44:21.792Z,0.00
2022-12-13T02:45:08.252Z,0.00
2022-12-13T02:46:07.572Z,0.00
2022-12-13T02:47:12.772Z,0.00
2022-12-13T02:48:09.163Z,0.00
2022-12-13T02:49:08.380Z,0.00
2022-12-13T02:50:08.731Z,0.00
2022-12-13T02:51:09.054Z,0.00
2022-12-13T02:52:09.368Z,0.00
2022-12-13T02:53:09.716Z,0.00
2022-12-13T02:54:09.945Z,0.00
2022-12-13T02:55:10.156Z,0.00
2022-12-13T02:56:10.452Z,0.00
2022-12-13T02:57:10.813Z,0.00
2022-12-13T02:58:11.224Z,0.00
2022-12-13T02:59:11.551Z,0.00
2022-12-13T03:00:11.787Z,0.00
2022-12-13T03:01:28.656Z,0.00
2022-12-13T03:02:13.434Z,0.00
2022-12-13T03:03:13.676Z,0.00
2022-12-13T03:04:12.904Z,0.00
2022-12-13T03:05:13.694Z,0.00
2022-12-13T03:06:13.544Z,0.00
2022-12-13T03:07:13.761Z,0.00
2022-12-13T03:08:13.977Z,0.00
2022-12-13T03:09:14.336Z,0.00
2022-12-13T03:10:15.051Z,0.00
2022-12-13T03:11:15.003Z,0.00
2022-12-13T03:12:15.204Z,0.00
2022-12-13T03:13:15.536Z,0.00
2022-12-13T03:14:15.843Z,0.00
2022-12-13T03:15:16.488Z,0.00
2022-12-13T03:16:23.029Z,0.00
2022-12-13T03:17:17.781Z,0.00
2022-12-13T03:18:17.107Z,0.00
2022-12-13T03:19:17.458Z,0.00
2022-12-13T03:20:22.745Z,0.00
2022-12-13T03:21:19.034Z,0.00
2022-12-13T03:22:18.356Z,0.00
2022-12-13T03:23:18.722Z,0.00
2022-12-13T03:24:18.918Z,0.00
2022-12-13T03:25:31.377Z,0.00
2022-12-13T03:26:20.510Z,0.00
2022-12-13T03:27:19.903Z,0.00
2022-12-13T03:28:20.125Z,0.00
2022-12-13T03:29:24.072Z,0.00
2022-12-13T03:30:20.741Z,0.00
2022-12-13T03:31:21.089Z,0.00
2022-12-13T03:32:21.314Z,0.00
2022-12-13T03:33:21.522Z,0.00
2022-12-13T03:34:22.879Z,0.00
2022-12-13T03:35:22.869Z,0.00
2022-12-13T03:36:22.451Z,0.00
2022-12-13T03:37:22.801Z,0.00
2022-12-13T03:38:23.505Z,0.00
2022-12-13T03:39:23.386Z,0.00
2022-12-13T03:40:23.595Z,0.00
2022-12-13T03:41:23.963Z,0.00
2022-12-13T03:42:24.147Z,0.00
2022-12-13T03:43:24.487Z,0.00
2022-12-13T03:44:24.710Z,1.00
2022-12-13T03:45:26.086Z,0.00
2022-12-13T03:46:25.316Z,0.00
2022-12-13T03:47:25.512Z,0.00
2022-12-13T03:48:25.865Z,0.00
2022-12-13T03:49:26.220Z,0.00
2022-12-13T03:50:27.708Z,0.00
2022-12-13T03:51:26.831Z,0.00
2022-12-13T03:52:27.608Z,0.00
2022-12-13T03:53:33.541Z,0.00
2022-12-13T03:54:28.574Z,0.00
2022-12-13T03:55:27.946Z,0.00
2022-12-13T03:56:28.168Z,0.00
2022-12-13T03:57:28.393Z,0.00
2022-12-13T03:58:35.424Z,0.00
2022-12-13T03:59:29.976Z,0.00
2022-12-13T04:00:29.199Z,0.00
2022-12-13T04:01:29.487Z,0.00
2022-12-13T04:02:31.044Z,0.00
2022-12-13T04:03:30.256Z,0.00
2022-12-13T04:04:30.591Z,0.00
2022-12-13T04:05:30.774Z,0.00
2022-12-13T04:06:33.085Z,0.00
2022-12-13T04:07:34.323Z,0.00
2022-12-13T04:08:31.803Z,0.00
2022-12-13T04:09:32.079Z,0.00
2022-12-13T04:10:42.052Z,0.00
2022-12-13T04:11:54.813Z,0.00
2022-12-13T04:14:30.870Z,0.00
2022-12-13T04:14:50.614Z,0.00
2022-12-13T04:20:56.600Z,0.00
2022-12-13T04:21:52.364Z,0.00
2022-12-13T04:22:52.655Z,0.00
2022-12-13T04:23:52.975Z,0.00
2022-12-13T04:24:53.275Z,0.00
2022-12-13T04:25:53.512Z,0.00
2022-12-13T04:26:53.725Z,0.00
2022-12-13T04:27:53.931Z,0.00
2022-12-13T04:28:54.915Z,0.00
2022-12-13T04:29:54.632Z,0.00
2022-12-13T04:30:54.878Z,0.00
2022-12-13T04:31:55.193Z,0.00
2022-12-13T04:32:55.440Z,0.00
2022-12-13T04:33:55.629Z,0.00
2022-12-13T04:35:01.146Z,0.00
2022-12-13T04:35:57.271Z,0.00
2022-12-13T04:36:56.644Z,0.00
2022-12-13T04:37:56.879Z,0.00
2022-12-13T04:38:57.216Z,0.00
2022-12-13T04:40:00.936Z,0.00
2022-12-13T04:40:57.833Z,0.00
2022-12-13T04:41:58.039Z,0.00
2022-12-13T04:42:58.331Z,0.00
2022-12-13T04:43:58.686Z,0.00
2022-12-13T04:44:58.902Z,0.00
2022-12-13T04:45:59.131Z,0.00
2022-12-13T04:47:01.340Z,0.00
2022-12-13T04:47:59.706Z,0.00
2022-12-13T04:48:59.916Z,0.00
2022-12-13T04:50:00.131Z,0.00
2022-12-13T04:51:01.163Z,0.00
2022-12-13T04:52:01.827Z,0.00
2022-12-13T04:53:00.963Z,0.00
2022-12-13T04:54:13.114Z,0.00
2022-12-13T04:55:02.632Z,0.00
2022-12-13T04:56:01.859Z,0.00
2022-12-13T04:57:02.248Z,0.00
2022-12-13T04:58:02.464Z,0.00
2022-12-13T04:59:02.779Z,0.00
2022-12-13T05:00:03.098Z,0.00
2022-12-13T05:01:03.560Z,0.00
2022-12-13T05:02:03.825Z,0.00
2022-12-13T05:03:04.069Z,0.00
2022-12-13T05:04:04.277Z,0.00
2022-12-13T05:05:04.595Z,0.00
2022-12-13T05:06:04.910Z,0.00
2022-12-13T05:07:05.229Z,0.00
2022-12-13T05:08:05.429Z,0.00
2022-12-13T05:09:05.754Z,0.00
2022-12-13T05:10:06.953Z,0.00
2022-12-13T05:11:06.257Z,0.00
2022-12-13T05:12:21.907Z,0.00
2022-12-13T05:13:07.974Z,0.00
2022-12-13T05:14:07.204Z,0.00
2022-12-13T05:15:08.474Z,0.00
2022-12-13T05:16:10.101Z,1.00
2022-12-13T05:17:15.547Z,0.00
2022-12-13T05:18:32.629Z,0.00
2022-12-13T05:19:15.854Z,0.00
2022-12-13T05:20:14.545Z,0.00
2022-12-13T05:21:12.148Z,0.00
2022-12-13T05:22:11.615Z,0.00
2022-12-13T05:23:11.767Z,0.00
2022-12-13T05:24:10.114Z,0.00
2022-12-13T05:25:11.310Z,0.00
2022-12-13T05:26:12.591Z,0.00
2022-12-13T05:27:25.966Z,0.00
2022-12-13T05:28:27.531Z,1.00
2022-12-13T05:29:14.985Z,0.00
2022-12-13T05:30:18.152Z,0.00
2022-12-13T05:31:23.243Z,0.00
2022-12-13T05:32:48.531Z,0.00
2022-12-13T05:33:12.874Z,1.00
2022-12-13T05:34:18.086Z,0.00
2022-12-13T05:35:22.675Z,0.00
2022-12-13T05:36:14.811Z,0.00
2022-12-13T05:37:14.178Z,0.00
2022-12-13T05:38:14.443Z,0.00
2022-12-13T05:39:29.286Z,0.00
2022-12-13T05:40:16.010Z,0.00
2022-12-13T05:41:15.230Z,0.00
2022-12-13T05:42:16.457Z,0.00
2022-12-13T05:43:21.801Z,0.00
2022-12-13T05:44:17.221Z,1.00
2022-12-13T05:45:17.818Z,0.00
2022-12-13T05:46:16.897Z,0.00
2022-12-13T05:47:17.083Z,0.00
2022-12-13T05:48:24.939Z,0.00
2022-12-13T05:49:18.682Z,0.00
2022-12-13T05:50:17.880Z,0.00
2022-12-13T05:51:20.057Z,1.00
2022-12-13T05:52:30.829Z,0.00
2022-12-13T05:53:30.845Z,0.00
2022-12-13T05:54:20.031Z,1.00
2022-12-13T05:55:19.483Z,0.00
2022-12-13T05:56:23.447Z,0.00
2022-12-13T05:57:20.956Z,0.00
2022-12-13T05:58:23.108Z,0.00
2022-12-13T05:59:26.207Z,0.00
2022-12-13T06:00:29.281Z,0.00
2022-12-13T06:01:22.912Z,0.00
2022-12-13T06:02:22.279Z,0.00
2022-12-13T06:03:21.665Z,0.00
2022-12-13T06:04:22.970Z,0.00
2022-12-13T06:05:22.015Z,1.00
2022-12-13T06:06:24.029Z,0.00
2022-12-13T06:07:24.221Z,0.00
2022-12-13T06:08:24.588Z,0.00
2022-12-13T06:09:23.639Z,0.00
2022-12-13T06:10:34.206Z,0.00
2022-12-13T06:11:31.318Z,0.00
2022-12-13T06:12:31.920Z,1.00
2022-12-13T06:13:32.433Z,0.00
2022-12-13T06:14:25.783Z,0.00
2022-12-13T06:15:25.414Z,0.00
2022-12-13T06:16:27.205Z,0.00
2022-12-13T06:17:25.576Z,0.00
2022-12-13T06:18:25.947Z,0.00
2022-12-13T06:19:26.181Z,0.00
2022-12-13T06:20:26.539Z,0.00
2022-12-13T06:21:26.770Z,0.00
2022-12-13T06:22:27.878Z,0.00
2022-12-13T06:23:28.090Z,0.00
2022-12-13T06:24:27.517Z,1.00
2022-12-13T06:25:31.542Z,0.00
2022-12-13T06:26:29.424Z,0.00
2022-12-13T06:27:28.439Z,0.00
2022-12-13T06:28:33.458Z,0.00
2022-12-13T06:29:35.130Z,0.00
2022-12-13T06:30:30.583Z,1.00
2022-12-13T06:31:30.550Z,0.00
2022-12-13T06:32:32.100Z,0.00
2022-12-13T06:33:33.944Z,0.00
2022-12-13T06:34:31.750Z,0.00
2022-12-13T06:35:35.251Z,1.00
2022-12-13T06:36:33.822Z,1.00
2022-12-13T06:37:31.292Z,0.00
2022-12-13T06:38:32.396Z,0.00
2022-12-13T06:39:34.700Z,0.00
2022-12-13T06:40:32.981Z,0.00
2022-12-13T06:41:34.117Z,0.00
2022-12-13T06:42:57.403Z,0.00
2022-12-13T06:43:34.810Z,0.00
2022-12-13T06:44:35.966Z,2.00
2022-12-13T06:45:34.279Z,1.00
2022-12-13T06:46:35.154Z,0.00
2022-12-13T06:47:36.365Z,1.00
2022-12-13T06:48:34.689Z,1.00
2022-12-13T06:49:36.432Z,1.00
2022-12-13T06:50:39.690Z,1.00
2022-12-13T06:51:35.972Z,1.00
2022-12-13T06:52:35.476Z,2.00
2022-12-13T06:53:35.699Z,3.00
2022-12-13T06:54:35.977Z,3.00
2022-12-13T06:55:38.038Z,4.00
2022-12-13T06:56:36.577Z,5.00
2022-12-13T06:57:36.709Z,6.00
2022-12-13T06:58:36.975Z,7.00
2022-12-13T06:59:37.495Z,8.00
2022-12-13T07:00:48.604Z,9.00
2022-12-13T07:01:40.844Z,9.00
2022-12-13T07:02:40.221Z,10.00
2022-12-13T07:03:40.251Z,11.00
2022-12-13T07:04:41.503Z,12.00
2022-12-13T07:05:43.267Z,12.00
2022-12-13T07:06:40.973Z,13.00
2022-12-13T07:07:39.552Z,14.00
2022-12-13T07:08:39.982Z,15.00
2022-12-13T07:09:40.483Z,16.00
2022-12-13T07:10:40.371Z,21.00
2022-12-13T07:11:40.719Z,23.00
2022-12-13T07:12:41.024Z,26.00
2022-12-13T07:13:42.108Z,29.00
2022-12-13T07:14:41.595Z,36.00
2022-12-13T07:15:41.930Z,37.00
2022-12-13T07:16:42.163Z,40.00
2022-12-13T07:17:43.690Z,39.00
2022-12-13T07:18:42.708Z,41.00
2022-12-13T07:19:43.673Z,38.00
2022-12-13T07:20:43.315Z,37.00
2022-12-13T07:21:45.235Z,43.00
2022-12-13T07:22:48.004Z,42.00
2022-12-13T07:23:46.001Z,48.00
2022-12-13T07:24:45.373Z,57.00
2022-12-13T07:25:45.528Z,58.00
2022-12-13T07:26:44.879Z,62.00
2022-12-13T07:27:45.155Z,65.00
2022-12-13T07:28:46.429Z,69.00
2022-12-13T07:29:45.807Z,71.00
2022-12-13T07:30:47.081Z,79.00
2022-12-13T07:31:46.388Z,82.00
2022-12-13T07:32:46.645Z,90.00
2022-12-13T07:33:46.963Z,97.00
2022-12-13T07:34:48.069Z,104.00
2022-12-13T07:35:47.606Z,111.00
2022-12-13T07:36:49.521Z,114.00
2022-12-13T07:37:48.510Z,125.00
2022-12-13T07:38:48.473Z,131.00
2022-12-13T07:39:48.780Z,135.00
2022-12-13T07:40:49.095Z,143.00
2022-12-13T07:41:49.360Z,153.00
2022-12-13T07:42:49.646Z,160.00
2022-12-13T07:43:55.107Z,161.00
2022-12-13T07:44:51.224Z,177.00
2022-12-13T07:45:51.434Z,181.00
2022-12-13T07:46:50.776Z,196.00
2022-12-13T07:47:51.057Z,198.00
2022-12-13T07:48:51.382Z,201.00
2022-12-13T07:49:51.653Z,217.00
2022-12-13T07:50:54.322Z,220.00
2022-12-13T07:51:52.395Z,234.00
2022-12-13T07:52:52.567Z,242.00
2022-12-13T07:53:52.850Z,243.00
2022-12-13T07:54:53.213Z,250.00
2022-12-13T07:55:53.466Z,261.00
2022-12-13T07:56:53.814Z,274.00
2022-12-13T07:57:54.052Z,274.00
2022-12-13T07:58:54.408Z,283.00
2022-12-13T07:59:54.694Z,289.00
2022-12-13T08:00:55.014Z,312.00
2022-12-13T08:01:55.291Z,323.00
2022-12-13T08:02:55.560Z,326.00
2022-12-13T08:03:55.913Z,339.00
2022-12-13T08:04:56.245Z,342.00
2022-12-13T08:05:58.552Z,347.00
2022-12-13T08:06:56.820Z,358.00
2022-12-13T08:07:57.130Z,356.00
2022-12-13T08:08:57.488Z,377.00
2022-12-13T08:09:57.715Z,380.00
2022-12-13T08:10:58.033Z,392.00
2022-12-13T08:11:58.858Z,394.00
2022-12-13T08:12:58.673Z,397.00
2022-12-13T08:13:59.036Z,404.00
2022-12-13T08:14:59.284Z,413.00
2022-12-13T08:15:59.918Z,421.00
2022-12-13T08:16:59.906Z,428.00
2022-12-13T08:18:00.353Z,417.00
2022-12-13T08:19:02.014Z,429.00
2022-12-13T08:20:00.717Z,432.00
2022-12-13T08:21:01.082Z,448.00
2022-12-13T08:22:02.227Z,439.00
2022-12-13T08:23:02.650Z,458.00
2022-12-13T08:24:01.987Z,469.00
2022-12-13T08:25:02.300Z,463.00
2022-12-13T08:26:02.723Z,466.00
2022-12-13T08:27:03.132Z,471.00
2022-12-13T08:28:03.270Z,480.00
2022-12-13T08:29:03.418Z,496.00
2022-12-13T08:30:03.717Z,493.00
2022-12-13T08:31:04.125Z,506.00
2022-12-13T08:32:04.308Z,531.00
2022-12-13T08:33:05.331Z,542.00
2022-12-13T08:34:04.865Z,530.00
2022-12-13T08:35:05.092Z,536.00
2022-12-13T08:36:05.381Z,538.00
2022-12-13T08:37:05.704Z,540.00
2022-12-13T08:38:06.062Z,542.00
2022-12-13T08:39:06.375Z,538.00
2022-12-13T08:40:06.612Z,544.00
2022-12-13T08:41:06.885Z,556.00
2022-12-13T08:42:16.389Z,554.00
2022-12-13T08:43:08.371Z,558.00
2022-12-13T08:44:07.753Z,578.00
2022-12-13T08:45:07.965Z,554.00
2022-12-13T08:46:08.286Z,625.00
2022-12-13T08:47:08.564Z,589.00
2022-12-13T08:48:08.890Z,634.00
2022-12-13T08:49:09.158Z,704.00
2022-12-13T08:50:09.402Z,797.00
2022-12-13T08:51:09.620Z,630.00
2022-12-13T08:52:09.913Z,739.00
2022-12-13T08:53:10.233Z,1030.00
2022-12-13T08:54:11.739Z,1191.00
2022-12-13T08:55:10.833Z,1477.00
2022-12-13T08:56:11.118Z,2032.00
2022-12-13T08:57:11.392Z,1349.00
2022-12-13T08:58:11.746Z,1687.00
2022-12-13T08:59:11.984Z,1642.00
2022-12-13T09:00:12.303Z,1055.00
2022-12-13T09:01:13.319Z,1330.00
2022-12-13T09:02:12.889Z,1344.00
2022-12-13T09:03:13.561Z,1481.00
2022-12-13T09:04:13.498Z,1781.00
2022-12-13T09:05:33.104Z,1498.00
2022-12-13T09:06:15.076Z,1605.00
2022-12-13T09:07:14.371Z,1724.00
2022-12-13T09:08:23.392Z,1024.00
2022-12-13T09:09:15.845Z,1404.00
2022-12-13T09:10:27.239Z,1313.00
2022-12-13T09:11:21.519Z,909.00
2022-12-13T09:12:30.691Z,736.00
2022-12-13T09:13:31.769Z,991.00
2022-12-13T09:14:17.275Z,863.00
2022-12-13T09:15:22.271Z,697.00
2022-12-13T09:16:23.107Z,807.00
2022-12-13T09:17:24.917Z,1341.00
2022-12-13T09:18:23.950Z,2368.00
2022-12-13T09:19:25.851Z,2252.00
2022-12-13T09:20:28.808Z,1385.00
2022-12-13T09:21:22.302Z,884.00
2022-12-13T09:22:18.501Z,1302.00
2022-12-13T09:23:23.605Z,1167.00
2022-12-13T09:24:24.213Z,2401.00
2022-12-13T09:25:24.147Z,1443.00
2022-12-13T09:26:25.450Z,1011.00
2022-12-13T09:27:27.296Z,1038.00
2022-12-13T09:28:21.116Z,1026.00
2022-12-13T09:29:20.392Z,964.00
2022-12-13T09:30:20.747Z,998.00
2022-12-13T09:31:21.005Z,841.00
2022-12-13T09:32:21.286Z,844.00
2022-12-13T09:33:29.936Z,855.00
2022-12-13T09:34:22.952Z,814.00
2022-12-13T09:35:22.145Z,1089.00
2022-12-13T09:36:22.455Z,782.00
2022-12-13T09:37:23.403Z,943.00
2022-12-13T09:38:23.208Z,884.00
2022-12-13T09:39:23.379Z,908.00
2022-12-13T09:40:25.973Z,946.00
2022-12-13T09:41:28.787Z,967.00
2022-12-13T09:42:30.567Z,743.00
2022-12-13T09:43:31.889Z,886.00
2022-12-13T09:44:32.333Z,938.00
2022-12-13T09:45:31.889Z,962.00
2022-12-13T09:46:26.490Z,840.00
2022-12-13T09:47:26.651Z,880.00
2022-12-13T09:48:27.218Z,763.00
2022-12-13T09:49:26.295Z,896.00
2022-12-13T09:50:27.492Z,983.00
2022-12-13T09:51:41.499Z,954.00
2022-12-13T09:52:33.448Z,942.00
2022-12-13T09:53:33.464Z,962.00
2022-12-13T09:54:28.547Z,858.00
2022-12-13T09:55:27.886Z,922.00
2022-12-13T09:56:28.162Z,1076.00
2022-12-13T09:57:33.043Z,1054.00
2022-12-13T09:58:29.640Z,898.00
2022-12-13T09:59:28.974Z,971.00
2022-12-13T10:00:29.263Z,1079.00
2022-12-13T10:01:29.666Z,1110.00
2022-12-13T10:02:29.960Z,966.00
2022-12-13T10:03:30.061Z,1165.00
2022-12-13T10:04:30.369Z,1298.00
2022-12-13T10:05:34.174Z,1097.00
2022-12-13T10:06:31.911Z,1075.00
2022-12-13T10:07:31.198Z,983.00
2022-12-13T10:08:31.517Z,986.00
2022-12-13T10:09:31.860Z,1152.00
2022-12-13T10:10:32.101Z,1086.00
2022-12-13T10:11:33.108Z,1102.00
2022-12-13T10:12:32.652Z,1192.00
2022-12-13T10:13:32.992Z,1246.00
2022-12-13T10:14:33.254Z,1187.00
2022-12-13T10:15:33.550Z,1486.00
2022-12-13T10:16:36.165Z,1185.00
2022-12-13T10:17:38.206Z,1220.00
2022-12-13T10:18:34.448Z,1199.00
2022-12-13T10:19:34.742Z,1230.00
2022-12-13T10:20:35.012Z,1248.00
2022-12-13T10:21:35.268Z,1258.00
2022-12-13T10:22:35.540Z,1213.00
2022-12-13T10:23:59.757Z,1253.00
2022-12-13T10:24:37.994Z,1314.00
2022-12-13T10:25:36.487Z,1300.00
2022-12-13T10:26:36.687Z,1398.00
2022-12-13T10:27:37.198Z,1197.00
2022-12-13T10:28:37.475Z,1265.00
2022-12-13T10:29:37.538Z,1209.00
2022-12-13T10:30:37.889Z,1364.00
2022-12-13T10:31:38.153Z,1194.00
2022-12-13T10:32:38.407Z,1393.00
2022-12-13T10:33:38.671Z,1376.00
2022-12-13T10:34:39.137Z,1450.00
2022-12-13T10:35:39.704Z,1472.00
2022-12-13T10:36:39.577Z,1442.00
2022-12-13T10:37:39.867Z,1400.00
2022-12-13T10:38:40.169Z,1425.00
2022-12-13T10:39:40.472Z,1401.00
2022-12-13T10:40:40.893Z,1487.00
2022-12-13T10:41:41.010Z,1687.00
2022-12-13T10:42:41.312Z,1562.00
2022-12-13T10:43:41.585Z,1347.00
2022-12-13T10:44:41.871Z,1542.00
2022-12-13T10:45:42.410Z,1420.00
2022-12-13T10:46:42.564Z,1551.00
2022-12-13T10:47:42.723Z,1562.00
2022-12-13T10:48:43.034Z,1524.00
2022-12-13T10:49:43.284Z,1556.00
2022-12-13T10:50:44.576Z,1607.00
2022-12-13T10:51:43.903Z,1665.00
2022-12-13T10:52:44.265Z,1692.00
2022-12-13T10:53:47.325Z,1743.00
2022-12-13T10:54:48.432Z,1678.00
2022-12-13T10:55:45.067Z,1509.00
2022-12-13T10:56:45.345Z,1663.00
2022-12-13T10:57:45.740Z,1724.00
2022-12-13T10:58:45.948Z,1800.00
2022-12-13T10:59:46.217Z,1655.00
2022-12-13T11:00:46.746Z,1637.00
2022-12-13T11:01:46.869Z,1699.00
2022-12-13T11:02:47.248Z,1527.00
2022-12-13T11:03:47.508Z,1392.00
2022-12-13T11:04:47.835Z,1363.00
2022-12-13T11:05:48.074Z,1483.00
2022-12-13T11:06:48.382Z,1478.00
2022-12-13T11:07:48.601Z,1562.00
2022-12-13T11:08:48.893Z,1510.00
2022-12-13T11:09:52.920Z,1510.00
2022-12-13T11:10:49.472Z,1708.00
2022-12-13T11:11:49.766Z,1521.00
2022-12-13T11:12:50.140Z,1404.00
2022-12-13T11:13:50.357Z,1477.00
2022-12-13T11:14:50.718Z,1425.00
2022-12-13T11:15:50.972Z,1388.00
2022-12-13T11:16:51.405Z,1415.00
2022-12-13T11:17:51.555Z,1378.00
2022-12-13T11:18:51.902Z,1289.00
2022-12-13T11:19:52.171Z,1367.00
2022-12-13T11:20:54.240Z,1440.00
2022-12-13T11:21:52.681Z,1333.00
2022-12-13T11:22:53.050Z,1604.00
2022-12-13T11:23:53.182Z,1284.00
2022-12-13T11:24:53.459Z,1447.00
2022-12-13T11:25:53.763Z,2005.00
2022-12-13T11:26:54.181Z,2612.00
2022-12-13T11:27:54.281Z,1550.00
2022-12-13T11:28:54.584Z,2522.00
2022-12-13T11:29:54.853Z,1857.00
2022-12-13T11:30:55.147Z,1311.00
2022-12-13T11:31:56.510Z,1466.00
2022-12-13T11:32:59.091Z,3225.00
2022-12-13T11:33:55.947Z,1844.00
2022-12-13T11:34:56.239Z,1703.00
2022-12-13T11:35:56.543Z,1500.00
2022-12-13T11:36:57.745Z,1841.00
2022-12-13T11:37:57.223Z,1779.00
2022-12-13T11:38:58.052Z,1628.00
2022-12-13T11:40:01.137Z,1559.00
2022-12-13T11:40:58.147Z,1539.00
2022-12-13T11:41:58.373Z,1575.00
2022-12-13T11:42:58.791Z,1529.00
2022-12-13T11:43:58.971Z,1574.00
2022-12-13T11:44:59.215Z,1642.00
2022-12-13T11:45:59.566Z,1484.00
2022-12-13T11:46:59.841Z,1530.00
2022-12-13T11:48:00.106Z,1463.00
2022-12-13T11:49:00.395Z,1482.00
2022-12-13T11:50:00.730Z,1432.00
2022-12-13T11:51:01.037Z,1757.00
2022-12-13T11:52:01.308Z,2151.00
2022-12-13T11:53:02.058Z,1753.00
2022-12-13T11:54:01.923Z,2745.00
2022-12-13T11:55:02.190Z,2025.00
2022-12-13T11:56:02.451Z,1480.00
2022-12-13T11:57:02.868Z,1583.00
2022-12-13T11:58:03.136Z,1574.00
2022-12-13T11:59:06.603Z,1544.00
2022-12-13T12:00:04.967Z,1513.00
2022-12-13T12:01:05.113Z,1779.00
2022-12-13T12:02:05.046Z,1139.00
2022-12-13T12:03:04.641Z,2169.00
2022-12-13T12:04:04.862Z,1501.00
2022-12-13T12:05:05.094Z,1535.00
2022-12-13T12:06:05.380Z,1419.00
2022-12-13T12:07:24.807Z,1566.00
2022-12-13T12:08:32.209Z,1512.00
2022-12-13T12:09:07.360Z,1515.00
2022-12-13T12:10:06.568Z,1528.00
2022-12-13T12:11:06.857Z,1527.00
2022-12-13T12:12:07.170Z,1743.00
2022-12-13T12:13:07.469Z,1439.00
2022-12-13T12:14:08.021Z,1570.00
2022-12-13T12:15:15.780Z,1976.00
2022-12-13T12:16:09.249Z,2112.00
2022-12-13T12:17:08.565Z,1911.00
2022-12-13T12:18:08.842Z,2169.00
2022-12-13T12:19:09.235Z,2482.00
2022-12-13T12:20:09.544Z,1756.00
2022-12-13T12:21:09.849Z,1562.00
2022-12-13T12:22:14.962Z,1670.00
2022-12-13T12:23:11.413Z,1591.00
2022-12-13T12:24:10.774Z,1665.00
2022-12-13T12:25:11.017Z,1617.00
2022-12-13T12:26:11.294Z,2004.00
2022-12-13T12:27:11.654Z,1959.00
2022-12-13T12:28:11.974Z,2630.00
2022-12-13T12:29:12.495Z,2502.00
2022-12-13T12:30:12.659Z,2537.00
2022-12-13T12:31:12.849Z,2241.00
2022-12-13T12:32:13.101Z,1609.00
2022-12-13T12:33:13.429Z,2095.00
2022-12-13T12:34:13.717Z,2105.00
2022-12-13T12:35:14.420Z,1678.00
2022-12-13T12:36:14.289Z,1710.00
2022-12-13T12:37:14.636Z,2392.00
2022-12-13T12:38:14.856Z,4022.00
2022-12-13T12:39:15.476Z,5966.00
2022-12-13T12:40:15.447Z,6012.00
2022-12-13T12:41:17.088Z,3909.00
2022-12-13T12:42:16.039Z,4217.00
2022-12-13T12:43:16.699Z,5224.00
2022-12-13T12:44:16.562Z,6241.00
2022-12-13T12:45:27.107Z,5198.00
2022-12-13T12:46:18.116Z,4704.00
2022-12-13T12:49:19.220Z,5552.00
2022-12-13T12:50:18.262Z,6255.00
2022-12-13T12:51:18.525Z,5224.00
2022-12-13T12:52:18.822Z,2780.00
2022-12-13T12:53:19.114Z,2797.00
2022-12-13T12:54:19.382Z,3369.00
2022-12-13T12:55:19.705Z,6153.00
2022-12-13T12:56:20.001Z,3490.00
2022-12-13T12:57:20.263Z,2250.00
2022-12-13T12:58:20.531Z,2199.00
2022-12-13T12:59:20.838Z,1779.00
2022-12-13T13:00:21.152Z,1628.00